Terminal Aerodrome Forecast
Issued by NWS

Home | Current Version | Previous Version | Text Only | Print | Product List | Glossary On
Versions: 1 2 3 4 5 6 7 8 9 10 11 12 13 14 15 16
141
FTUS42 KMLB 250109 AAA
TAFSUA
TAF AMD
KSUA 250109Z 2501/2524 04010KT P6SM VCSH SCT025 SCT040 BKN080
      TEMPO 2501/2504 VRB15G26KT 2SM TSRA FEW010 BKN025CB BKN035
     FM251600 07011G18KT P6SM VCSH SCT025 BKN060
      AMD LTD TO CLD AND WIND TIL 251100=

USA.gov is the U.S. government's official web portal to all federal, state and local government web resources and services.